METAR Data
IDs: Format: Raw Decoded Include TAF

Data at: 0450 UTC 21 Sep 2018

KPGA 210353Z AUTO 25007KT 10SM CLR 27/M08 A3003 RMK AO2 SLP106 T02671083 TSNO
KPGA 210253Z AUTO 23004KT 10SM CLR 27/M08 A3000 RMK AO2 SLP098 T02671078 53016 TSNO
KPGA 210153Z AUTO 27004KT 10SM CLR 28/M08 A2997 RMK AO2 SLP086 T02831083 TSNO
KPGA 210053Z AUTO 27005KT 10SM CLR 30/M09 A2995 RMK AO2 SLP080 T03001089 TSNO
KPGA 202353Z AUTO 00000KT 10SM CLR 31/M06 A2995 RMK AO2 SLP078 T03061056 10317 20233 56009 TSNO
KPGA 202253Z AUTO 31006KT 10SM CLR 31/M06 A2995 RMK AO2 SLP079 T03061061 TSNO
KPGA 202153Z AUTO 27005KT 10SM CLR 31/M04 A2996 RMK AO2 SLP081 T03061044 TSNO
KPGA 202053Z AUTO VRB03KT 10SM CLR 29/M03 A2998 RMK AO2 SLP087 T02941028 58017 TSNO
KPGA 201953Z AUTO 35007KT 10SM CLR 29/00 A3000 RMK AO2 SLP094 T02890000 TSNO
KPGA 201853Z AUTO VRB04KT 10SM CLR 27/07 A3002 RMK AO2 SLP103 T02720067 TSNO
KPGA 201753Z AUTO 00000KT 10SM CLR 23/11 A3003 RMK AO2 SLP113 T02330106 10256 20161 50005 TSNO
KPGA 201653Z AUTO 33004KT 10SM CLR 23/11 A3004 RMK AO2 SLP115 T02280111 TSNO
KPGA 201553Z AUTO 25003KT 10SM CLR 21/13 A3003 RMK AO2 SLP113 T02060128 TSNO
KPGA 201453Z AUTO 00000KT 10SM CLR 19/13 A3002 RMK AO2 SLP108 T01940128 51021 TSNO
KPGA 201353Z AUTO 00000KT 10SM CLR 18/12 A3000 RMK AO2 SLP102 T01780122 TSNO
KPGA 201253Z AUTO 21003KT 10SM CLR 17/12 A2997 RMK AO2 SLP093 T01720122 TSNO
KPGA 201153Z AUTO 18003KT 10SM CLR 17/13 A2995 RMK AO2 SLP083 T01720128 10211 20172 53008 TSNO
KPGA 201053Z AUTO 00000KT 10SM CLR 18/13 A2994 RMK AO2 SLP075 T01830128 TSNO
KPGA 200953Z AUTO 00000KT 10SM CLR 19/13 A2993 RMK AO2 SLP073 T01890128 TSNO
KPGA 200853Z AUTO 20009KT 10SM CLR 19/13 A2992 RMK AO2 SLP066 T01940128 51006 TSNO
KPGA 200753Z AUTO VRB06KT 10SM CLR 19/13 A2992 RMK AO2 SLP066 T01940128 TSNO
KPGA 200653Z AUTO 21010G18KT 10SM CLR 21/13 A2991 RMK AO2 SLP061 T02060133 403220194 TSNO
KPGA 200553Z AUTO 21011G22KT 10SM CLR 21/13 A2990 RMK AO2 SLP059 60000 T02110128 10256 20211 51017 TSNO
KPGA 200453Z AUTO 21010G21KT 10SM CLR 22/12 A2990 RMK AO2 SLP059 T02170122 TSNO
KPGA 200353Z AUTO 19012G19KT 10SM CLR 22/12 A2988 RMK AO2 SLP054 T02220122 TSNO
KPGA 200253Z AUTO 20011G22KT 10SM CLR 24/11 A2984 RMK AO2 PK WND 20027/0216 SLP042 60000 T02390111 53009 TSNO
KPGA 200153Z AUTO 19013G26KT 10SM BKN110 24/11 A2982 RMK AO2 PK WND 20026/0150 RAB33E42 SLP038 P0000 T02390111 TSNO
KPGA 200053Z AUTO 20013G22KT 10SM SCT110 24/09 A2981 RMK AO2 PK WND 20027/0033 SLP035 T02440094 TSNO
KPGA 192353Z AUTO 19013G26KT 10SM CLR 26/09 A2981 RMK AO2 PK WND 19028/2335 SLP032 T02560094 10322 20256 58011 TSNO
KPGA 192253Z AUTO 19013G21KT 10SM CLR 28/08 A2983 RMK AO2 PK WND 17031/2205 SLP034 T02780083 TSNO
KPGA 192153Z AUTO 19014G25KT 10SM CLR 28/09 A2985 RMK AO2 PK WND 16030/2114 SLP043 T02780094 TSNO
KPGA 192053Z AUTO 16022G28KT 10SM BKN095 BKN110 31/08 A2985 RMK AO2 PK WND 15030/2016 SLP035 T03060083 58025 TSNO
KPGA 191953Z AUTO 19009G17KT 150V260 10SM SCT090 31/08 A2988 RMK AO2 SLP044 T03060083 TSNO
KPGA 191853Z AUTO 06009KT 10SM FEW120 29/08 A2991 RMK AO2 SLP054 T02940083 TSNO
KPGA 191753Z AUTO 09006KT 10SM BKN110 29/06 A2993 RMK AO2 SLP063 T02890061 10289 20194 58004 TSNO
KPGA 191653Z AUTO 07004KT 10SM CLR 27/04 A2994 RMK AO2 SLP068 T02720039 TSNO